createdAt,value
2017-12-21T00:00:20.470Z,1029.25
2017-12-21T00:02:13.430Z,1029.24
2017-12-21T00:03:13.638Z,1029.25
2017-12-21T00:05:06.462Z,1029.28
2017-12-21T00:06:06.430Z,1029.32
2017-12-21T00:07:59.438Z,1029.33
2017-12-21T00:08:59.454Z,1029.27
2017-12-21T00:10:52.494Z,1029.35
2017-12-21T00:11:52.519Z,1029.37
2017-12-21T00:13:45.439Z,1029.28
2017-12-21T00:14:45.471Z,1029.30
2017-12-21T00:16:38.975Z,1029.28
2017-12-21T00:17:38.999Z,1029.28
2017-12-21T00:19:32.047Z,1029.26
2017-12-21T00:20:31.951Z,1029.20
2017-12-21T00:22:24.935Z,1029.24
2017-12-21T00:23:24.951Z,1029.23
2017-12-21T00:25:18.399Z,1029.20
2017-12-21T00:26:18.463Z,1029.19
2017-12-21T00:28:11.394Z,1029.15
2017-12-21T00:29:11.415Z,1029.17
2017-12-21T00:31:04.408Z,1029.14
2017-12-21T00:32:04.383Z,1029.12
2017-12-21T00:33:57.447Z,1029.03
2017-12-21T00:34:57.473Z,1029.03
2017-12-21T00:36:50.423Z,1029.05
2017-12-21T00:37:50.480Z,1029.10
2017-12-21T00:39:43.416Z,1029.08
2017-12-21T00:40:43.424Z,1029.14
2017-12-21T00:42:36.432Z,1029.08
2017-12-21T00:43:36.440Z,1029.08
2017-12-21T00:45:29.464Z,1029.08
2017-12-21T00:46:29.433Z,1029.07
2017-12-21T00:48:22.392Z,1029.13
2017-12-21T00:49:22.416Z,1029.11
2017-12-21T00:51:15.448Z,1029.19
2017-12-21T00:52:15.432Z,1029.13
2017-12-21T00:54:08.395Z,1029.16
2017-12-21T00:55:08.409Z,1029.14
2017-12-21T00:57:01.935Z,1029.09
2017-12-21T00:58:01.953Z,1029.11
2017-12-21T00:59:54.953Z,1029.09
2017-12-21T01:00:54.969Z,1029.13
2017-12-21T01:02:48.225Z,1029.16
2017-12-21T01:03:47.897Z,1029.11
2017-12-21T01:05:40.985Z,1029.12
2017-12-21T01:06:40.945Z,1029.08
2017-12-21T01:08:33.985Z,1029.09
2017-12-21T01:09:33.969Z,1029.12
2017-12-21T01:11:26.921Z,1029.13
2017-12-21T01:12:26.953Z,1029.14
2017-12-21T01:14:20.001Z,1029.13
2017-12-21T01:15:19.929Z,1029.16
2017-12-21T01:17:13.010Z,1029.14
2017-12-21T01:18:12.906Z,1029.14
2017-12-21T01:20:05.913Z,1029.16
2017-12-21T01:21:05.922Z,1029.12
2017-12-21T01:22:58.890Z,1029.07
2017-12-21T01:23:58.932Z,1029.04
2017-12-21T01:25:51.946Z,1029.01
2017-12-21T01:26:51.906Z,1029.05
2017-12-21T01:28:44.953Z,1029.03
2017-12-21T01:29:44.906Z,1029.09
2017-12-21T01:31:37.914Z,1029.08
2017-12-21T01:32:37.954Z,1029.07
2017-12-21T01:34:30.907Z,1029.06
2017-12-21T01:35:30.938Z,1029.03
2017-12-21T01:37:23.906Z,1029.00
2017-12-21T01:38:23.914Z,1028.96
2017-12-21T01:40:17.003Z,1028.99
2017-12-21T01:41:16.922Z,1028.98
2017-12-21T01:43:09.931Z,1029.01
2017-12-21T01:44:09.931Z,1028.98
2017-12-21T01:46:02.931Z,1029.06
2017-12-21T01:47:02.907Z,1029.08
2017-12-21T01:48:55.956Z,1029.14
2017-12-21T01:49:55.963Z,1029.11
2017-12-21T01:51:49.003Z,1029.08
2017-12-21T01:52:48.931Z,1029.07
2017-12-21T01:54:41.955Z,1029.07
2017-12-21T01:55:41.949Z,1029.10
2017-12-21T01:57:34.884Z,1029.11
2017-12-21T01:58:34.891Z,1029.09
2017-12-21T02:00:27.875Z,1029.03
2017-12-21T02:01:27.871Z,1029.03
2017-12-21T02:03:20.852Z,1028.95
2017-12-21T02:04:21.131Z,1028.95
2017-12-21T02:06:13.884Z,1028.90
2017-12-21T02:07:13.924Z,1028.93
2017-12-21T02:09:06.852Z,1028.89
2017-12-21T02:10:06.908Z,1028.88
2017-12-21T02:11:59.908Z,1028.91
2017-12-21T02:12:59.892Z,1028.97
2017-12-21T02:14:52.844Z,1028.95
2017-12-21T02:15:53.028Z,1028.97
2017-12-21T02:17:45.900Z,1028.93
2017-12-21T02:18:45.884Z,1028.91
2017-12-21T02:20:38.900Z,1028.85
2017-12-21T02:21:38.949Z,1028.85
2017-12-21T02:23:31.940Z,1028.88
2017-12-21T02:24:31.880Z,1028.87
2017-12-21T02:26:24.906Z,1028.83
2017-12-21T02:27:24.883Z,1028.88
2017-12-21T02:29:17.907Z,1028.94
2017-12-21T02:30:17.874Z,1028.95
2017-12-21T02:32:10.843Z,1028.87
2017-12-21T02:33:10.875Z,1028.90
2017-12-21T02:35:03.851Z,1028.87
2017-12-21T02:36:03.860Z,1028.88
2017-12-21T02:37:56.892Z,1028.87
2017-12-21T02:38:56.884Z,1028.84
2017-12-21T02:40:50.192Z,1028.89
2017-12-21T02:41:49.851Z,1028.86
2017-12-21T02:43:43.572Z,1028.86
2017-12-21T02:44:43.340Z,1028.81
2017-12-21T02:46:36.372Z,1028.84
2017-12-21T02:47:36.331Z,1028.87
2017-12-21T02:49:29.284Z,1028.88
2017-12-21T02:50:29.323Z,1028.87
2017-12-21T02:52:22.389Z,1028.88
2017-12-21T02:53:22.380Z,1028.94
2017-12-21T02:55:15.332Z,1028.87
2017-12-21T02:56:15.299Z,1028.90
2017-12-21T02:58:08.332Z,1028.93
2017-12-21T02:59:09.308Z,1028.94
2017-12-21T03:01:01.308Z,1028.97
2017-12-21T03:02:01.331Z,1028.98
2017-12-21T03:03:54.300Z,1029.00
2017-12-21T03:04:54.308Z,1028.99
2017-12-21T03:06:48.317Z,1028.97
2017-12-21T03:07:47.316Z,1028.91
2017-12-21T03:09:40.268Z,1028.84
2017-12-21T03:10:40.308Z,1028.85
2017-12-21T03:12:33.277Z,1028.86
2017-12-21T03:13:33.244Z,1028.82
2017-12-21T03:15:26.701Z,1028.75
2017-12-21T03:16:26.749Z,1028.70
2017-12-21T03:18:20.821Z,1028.65
2017-12-21T03:19:19.733Z,1028.62
2017-12-21T03:21:12.733Z,1028.62
2017-12-21T03:22:12.741Z,1028.65
2017-12-21T03:24:05.725Z,1028.62
2017-12-21T03:25:05.701Z,1028.65
2017-12-21T03:26:58.733Z,1028.62
2017-12-21T03:27:58.720Z,1028.64
2017-12-21T03:29:51.677Z,1028.65
2017-12-21T03:30:51.678Z,1028.63
2017-12-21T03:32:45.262Z,1028.63
2017-12-21T03:33:45.198Z,1028.62
2017-12-21T03:35:38.232Z,1028.55
2017-12-21T03:36:38.199Z,1028.54
2017-12-21T03:38:31.181Z,1028.47
2017-12-21T03:39:31.226Z,1028.47
2017-12-21T03:41:24.206Z,1028.43
2017-12-21T03:42:24.239Z,1028.49
2017-12-21T03:44:17.230Z,1028.52
2017-12-21T03:45:17.249Z,1028.53
2017-12-21T03:47:11.222Z,1028.54
2017-12-21T03:48:11.246Z,1028.51
2017-12-21T03:50:04.175Z,1028.45
2017-12-21T03:51:04.398Z,1028.46
2017-12-21T03:52:57.230Z,1028.45
2017-12-21T03:53:57.215Z,1028.44
2017-12-21T03:55:50.663Z,1028.51
2017-12-21T03:56:50.687Z,1028.51
2017-12-21T03:58:43.742Z,1028.54
2017-12-21T03:59:43.711Z,1028.53
2017-12-21T04:01:36.679Z,1028.57
2017-12-21T04:02:36.729Z,1028.54
2017-12-21T04:04:29.695Z,1028.54
2017-12-21T04:05:29.751Z,1028.54
2017-12-21T04:07:22.711Z,1028.56
2017-12-21T04:08:22.735Z,1028.54
2017-12-21T04:10:16.752Z,1028.52
2017-12-21T04:11:16.711Z,1028.47
2017-12-21T04:13:10.432Z,1028.48
2017-12-21T04:14:10.192Z,1028.51
2017-12-21T04:16:03.231Z,1028.45
2017-12-21T04:17:03.201Z,1028.42
2017-12-21T04:18:56.232Z,1028.49
2017-12-21T04:19:56.199Z,1028.44
2017-12-21T04:21:49.687Z,1028.44
2017-12-21T04:22:49.732Z,1028.42
2017-12-21T04:24:43.696Z,1028.42
2017-12-21T04:25:42.695Z,1028.41
2017-12-21T04:27:35.647Z,1028.44
2017-12-21T04:28:35.680Z,1028.39
2017-12-21T04:30:28.696Z,1028.39
2017-12-21T04:31:28.720Z,1028.35
2017-12-21T04:33:21.656Z,1028.36
2017-12-21T04:34:21.680Z,1028.35
2017-12-21T04:36:14.904Z,1028.35
2017-12-21T04:37:14.672Z,1028.38
2017-12-21T04:39:07.616Z,1028.34
2017-12-21T04:40:07.648Z,1028.34
2017-12-21T04:42:00.649Z,1028.32
2017-12-21T04:43:00.633Z,1028.29
2017-12-21T04:44:53.609Z,1028.30
2017-12-21T04:45:53.649Z,1028.35
2017-12-21T04:47:46.625Z,1028.31
2017-12-21T04:48:46.665Z,1028.24
2017-12-21T04:50:39.632Z,1028.21
2017-12-21T04:51:39.617Z,1028.28
2017-12-21T04:53:33.089Z,1028.26
2017-12-21T04:54:32.600Z,1028.24
2017-12-21T04:56:25.585Z,1028.27
2017-12-21T04:57:25.577Z,1028.26
2017-12-21T04:59:18.545Z,1028.30
2017-12-21T05:00:18.561Z,1028.26
2017-12-21T05:02:11.572Z,1028.29
2017-12-21T05:03:11.570Z,1028.28
2017-12-21T05:05:04.581Z,1028.29
2017-12-21T05:06:04.580Z,1028.27
2017-12-21T05:07:58.044Z,1028.31
2017-12-21T05:08:58.074Z,1028.32
2017-12-21T05:10:51.034Z,1028.35
2017-12-21T05:11:51.037Z,1028.37
2017-12-21T05:13:43.969Z,1028.38
2017-12-21T05:14:44.034Z,1028.41
2017-12-21T05:16:37.018Z,1028.39
2017-12-21T05:17:37.042Z,1028.41
2017-12-21T05:19:29.980Z,1028.46
2017-12-21T05:20:30.018Z,1028.41
2017-12-21T05:22:23.010Z,1028.44
2017-12-21T05:23:22.994Z,1028.46
2017-12-21T05:25:16.002Z,1028.41
2017-12-21T05:26:16.010Z,1028.43
2017-12-21T05:28:08.978Z,1028.42
2017-12-21T05:29:08.994Z,1028.45
2017-12-21T05:31:01.994Z,1028.44
2017-12-21T05:32:02.003Z,1028.44
2017-12-21T05:33:55.026Z,1028.46
2017-12-21T05:34:55.024Z,1028.47
2017-12-21T05:36:47.960Z,1028.47
2017-12-21T05:37:47.976Z,1028.49
2017-12-21T05:39:40.952Z,1028.45
2017-12-21T05:40:41.039Z,1028.51
2017-12-21T05:42:33.976Z,1028.49
2017-12-21T05:43:33.992Z,1028.52
2017-12-21T05:45:26.928Z,1028.56
2017-12-21T05:46:26.952Z,1028.55
2017-12-21T05:48:19.941Z,1028.54
2017-12-21T05:49:20.953Z,1028.52
2017-12-21T05:51:12.977Z,1028.56
2017-12-21T05:52:12.953Z,1028.55
2017-12-21T05:54:05.905Z,1028.54
2017-12-21T05:55:05.961Z,1028.51
2017-12-21T05:57:00.713Z,1028.48
2017-12-21T05:58:00.433Z,1028.46
2017-12-21T05:59:54.009Z,1028.45
2017-12-21T06:00:54.057Z,1028.46
2017-12-21T06:02:47.025Z,1028.47
2017-12-21T06:03:47.025Z,1028.46
2017-12-21T06:05:40.045Z,1028.47
2017-12-21T06:06:41.013Z,1028.48
2017-12-21T06:08:32.958Z,1028.46
2017-12-21T06:09:32.989Z,1028.49
2017-12-21T06:11:25.990Z,1028.52
2017-12-21T06:12:26.024Z,1028.47
2017-12-21T06:14:18.997Z,1028.52
2017-12-21T06:15:19.044Z,1028.47
2017-12-21T06:17:11.972Z,1028.45
2017-12-21T06:18:11.955Z,1028.47
2017-12-21T06:20:04.900Z,1028.48
2017-12-21T06:21:04.932Z,1028.49
2017-12-21T06:22:57.924Z,1028.48
2017-12-21T06:23:57.964Z,1028.51
2017-12-21T06:25:50.956Z,1028.54
2017-12-21T06:26:50.957Z,1028.55
2017-12-21T06:28:44.012Z,1028.61
2017-12-21T06:29:43.964Z,1028.61
2017-12-21T06:31:37.044Z,1028.61
2017-12-21T06:32:37.061Z,1028.63
2017-12-21T06:34:30.580Z,1028.62
2017-12-21T06:35:30.549Z,1028.59
